sensor_id;sensor_type;location;lat;lon;timestamp;temperature;humidity
70267;DHT22;57676;43.856;1.926;2022-08-25T00:01:13;23.60;68.50
70267;DHT22;57676;43.856;1.926;2022-08-25T00:03:41;23.50;68.50
70267;DHT22;57676;43.856;1.926;2022-08-25T00:06:10;23.30;68.70
70267;DHT22;57676;43.856;1.926;2022-08-25T00:08:37;23.20;69.00
70267;DHT22;57676;43.856;1.926;2022-08-25T00:11:06;23.10;69.00
70267;DHT22;57676;43.856;1.926;2022-08-25T00:13:33;23.10;69.00
70267;DHT22;57676;43.856;1.926;2022-08-25T00:15:59;23.00;69.80
70267;DHT22;57676;43.856;1.926;2022-08-25T00:18:26;23.00;69.40
70267;DHT22;57676;43.856;1.926;2022-08-25T00:20:52;23.00;69.50
70267;DHT22;57676;43.856;1.926;2022-08-25T00:23:18;22.80;70.00
70267;DHT22;57676;43.856;1.926;2022-08-25T00:25:44;22.90;70.70
70267;DHT22;57676;43.856;1.926;2022-08-25T00:28:10;22.90;70.20
70267;DHT22;57676;43.856;1.926;2022-08-25T00:30:37;22.90;70.50
70267;DHT22;57676;43.856;1.926;2022-08-25T00:33:03;22.90;70.90
70267;DHT22;57676;43.856;1.926;2022-08-25T00:35:29;22.90;71.60
70267;DHT22;57676;43.856;1.926;2022-08-25T00:37:55;22.80;72.20
70267;DHT22;57676;43.856;1.926;2022-08-25T00:40:22;22.70;73.60
70267;DHT22;57676;43.856;1.926;2022-08-25T00:42:48;22.80;72.60
70267;DHT22;57676;43.856;1.926;2022-08-25T00:45:14;22.70;74.30
70267;DHT22;57676;43.856;1.926;2022-08-25T00:47:40;22.60;73.80
70267;DHT22;57676;43.856;1.926;2022-08-25T00:50:08;22.60;73.90
70267;DHT22;57676;43.856;1.926;2022-08-25T00:52:41;22.40;74.40
70267;DHT22;57676;43.856;1.926;2022-08-25T00:55:13;22.30;74.20
70267;DHT22;57676;43.856;1.926;2022-08-25T00:57:46;22.30;74.40
70267;DHT22;57676;43.856;1.926;2022-08-25T01:00:18;22.20;74.10
70267;DHT22;57676;43.856;1.926;2022-08-25T01:02:45;22.10;74.40
70267;DHT22;57676;43.856;1.926;2022-08-25T01:05:11;22.10;74.40
70267;DHT22;57676;43.856;1.926;2022-08-25T01:07:39;22.20;74.60
70267;DHT22;57676;43.856;1.926;2022-08-25T01:10:07;22.30;74.30
70267;DHT22;57676;43.856;1.926;2022-08-25T01:12:35;22.50;73.80
70267;DHT22;57676;43.856;1.926;2022-08-25T01:15:04;22.40;75.60
70267;DHT22;57676;43.856;1.926;2022-08-25T01:17:38;22.20;75.20
70267;DHT22;57676;43.856;1.926;2022-08-25T01:20:10;22.10;75.20
70267;DHT22;57676;43.856;1.926;2022-08-25T01:22:36;22.00;75.20
70267;DHT22;57676;43.856;1.926;2022-08-25T01:25:07;22.00;76.00
70267;DHT22;57676;43.856;1.926;2022-08-25T01:27:37;22.10;76.00
70267;DHT22;57676;43.856;1.926;2022-08-25T01:30:04;22.20;75.90
70267;DHT22;57676;43.856;1.926;2022-08-25T01:32:32;22.30;75.50
70267;DHT22;57676;43.856;1.926;2022-08-25T01:34:58;22.40;75.70
70267;DHT22;57676;43.856;1.926;2022-08-25T01:37:24;22.30;76.20
70267;DHT22;57676;43.856;1.926;2022-08-25T01:39:50;22.10;76.70
70267;DHT22;57676;43.856;1.926;2022-08-25T01:42:32;22.20;75.60
70267;DHT22;57676;43.856;1.926;2022-08-25T01:45:03;22.30;75.40
70267;DHT22;57676;43.856;1.926;2022-08-25T01:47:30;22.20;75.50
70267;DHT22;57676;43.856;1.926;2022-08-25T01:49:56;22.20;75.40
70267;DHT22;57676;43.856;1.926;2022-08-25T01:52:46;22.10;75.50
70267;DHT22;57676;43.856;1.926;2022-08-25T01:55:14;22.20;75.80
70267;DHT22;57676;43.856;1.926;2022-08-25T01:57:40;22.30;75.30
70267;DHT22;57676;43.856;1.926;2022-08-25T02:00:09;22.30;76.50
70267;DHT22;57676;43.856;1.926;2022-08-25T02:02:38;22.20;77.70
70267;DHT22;57676;43.856;1.926;2022-08-25T02:05:04;22.20;77.20
70267;DHT22;57676;43.856;1.926;2022-08-25T02:07:30;22.10;76.90
70267;DHT22;57676;43.856;1.926;2022-08-25T02:09:57;22.10;76.40
70267;DHT22;57676;43.856;1.926;2022-08-25T02:12:22;22.00;76.30
70267;DHT22;57676;43.856;1.926;2022-08-25T02:14:49;22.00;76.50
70267;DHT22;57676;43.856;1.926;2022-08-25T02:17:14;22.00;76.40
70267;DHT22;57676;43.856;1.926;2022-08-25T02:19:41;22.00;76.20
70267;DHT22;57676;43.856;1.926;2022-08-25T02:22:08;22.00;77.10
70267;DHT22;57676;43.856;1.926;2022-08-25T02:24:33;22.00;77.50
70267;DHT22;57676;43.856;1.926;2022-08-25T02:26:59;22.00;77.80
70267;DHT22;57676;43.856;1.926;2022-08-25T02:29:26;22.00;77.70
70267;DHT22;57676;43.856;1.926;2022-08-25T02:31:52;22.00;77.60
70267;DHT22;57676;43.856;1.926;2022-08-25T02:34:18;22.00;77.50
70267;DHT22;57676;43.856;1.926;2022-08-25T02:36:44;22.00;77.10
70267;DHT22;57676;43.856;1.926;2022-08-25T02:39:11;22.00;77.80
70267;DHT22;57676;43.856;1.926;2022-08-25T02:41:37;22.00;77.70
70267;DHT22;57676;43.856;1.926;2022-08-25T02:44:04;22.10;77.40
70267;DHT22;57676;43.856;1.926;2022-08-25T02:46:31;22.00;77.60
70267;DHT22;57676;43.856;1.926;2022-08-25T02:48:57;22.10;77.70
70267;DHT22;57676;43.856;1.926;2022-08-25T02:51:25;22.10;78.40
70267;DHT22;57676;43.856;1.926;2022-08-25T02:53:53;22.00;77.90
70267;DHT22;57676;43.856;1.926;2022-08-25T02:56:19;22.10;78.10
70267;DHT22;57676;43.856;1.926;2022-08-25T02:58:46;22.00;78.60
70267;DHT22;57676;43.856;1.926;2022-08-25T03:01:13;22.10;78.50
70267;DHT22;57676;43.856;1.926;2022-08-25T03:03:40;22.10;78.40
70267;DHT22;57676;43.856;1.926;2022-08-25T03:06:10;22.10;78.20
70267;DHT22;57676;43.856;1.926;2022-08-25T03:08:37;22.20;78.00
70267;DHT22;57676;43.856;1.926;2022-08-25T03:11:04;22.20;78.00
70267;DHT22;57676;43.856;1.926;2022-08-25T03:13:30;22.20;78.10
70267;DHT22;57676;43.856;1.926;2022-08-25T03:15:58;22.10;78.30
70267;DHT22;57676;43.856;1.926;2022-08-25T03:18:24;22.10;78.70
70267;DHT22;57676;43.856;1.926;2022-08-25T03:20:50;22.00;79.80
70267;DHT22;57676;43.856;1.926;2022-08-25T03:23:16;21.80;81.20
70267;DHT22;57676;43.856;1.926;2022-08-25T03:25:42;21.50;82.20
70267;DHT22;57676;43.856;1.926;2022-08-25T03:28:29;21.40;83.70
70267;DHT22;57676;43.856;1.926;2022-08-25T03:30:59;21.40;83.50
70267;DHT22;57676;43.856;1.926;2022-08-25T03:33:27;21.40;83.40
70267;DHT22;57676;43.856;1.926;2022-08-25T03:35:53;21.40;83.20
70267;DHT22;57676;43.856;1.926;2022-08-25T03:38:20;21.30;83.70
70267;DHT22;57676;43.856;1.926;2022-08-25T03:40:47;21.20;84.50
70267;DHT22;57676;43.856;1.926;2022-08-25T03:43:13;21.30;84.80
70267;DHT22;57676;43.856;1.926;2022-08-25T03:45:40;21.40;84.20
70267;DHT22;57676;43.856;1.926;2022-08-25T03:48:07;21.40;83.50
70267;DHT22;57676;43.856;1.926;2022-08-25T03:50:33;21.50;82.90
70267;DHT22;57676;43.856;1.926;2022-08-25T03:52:59;21.60;82.60
70267;DHT22;57676;43.856;1.926;2022-08-25T03:55:25;21.60;82.40
70267;DHT22;57676;43.856;1.926;2022-08-25T03:57:53;21.80;82.70
70267;DHT22;57676;43.856;1.926;2022-08-25T04:00:21;21.80;83.10
70267;DHT22;57676;43.856;1.926;2022-08-25T04:02:48;21.80;83.70
70267;DHT22;57676;43.856;1.926;2022-08-25T04:05:14;21.90;84.10
70267;DHT22;57676;43.856;1.926;2022-08-25T04:07:40;21.90;84.70
70267;DHT22;57676;43.856;1.926;2022-08-25T04:10:08;21.90;85.40
70267;DHT22;57676;43.856;1.926;2022-08-25T04:12:35;21.90;86.40
70267;DHT22;57676;43.856;1.926;2022-08-25T04:15:04;21.90;86.70
70267;DHT22;57676;43.856;1.926;2022-08-25T04:17:30;21.90;87.30
70267;DHT22;57676;43.856;1.926;2022-08-25T04:19:56;21.70;88.10
70267;DHT22;57676;43.856;1.926;2022-08-25T04:22:22;21.70;89.20
70267;DHT22;57676;43.856;1.926;2022-08-25T04:24:48;21.80;90.20
70267;DHT22;57676;43.856;1.926;2022-08-25T04:27:14;21.70;90.60
70267;DHT22;57676;43.856;1.926;2022-08-25T04:29:40;21.80;91.10
70267;DHT22;57676;43.856;1.926;2022-08-25T04:32:06;21.70;91.60
70267;DHT22;57676;43.856;1.926;2022-08-25T04:34:33;21.80;91.80
70267;DHT22;57676;43.856;1.926;2022-08-25T04:37:01;21.80;92.10
70267;DHT22;57676;43.856;1.926;2022-08-25T04:39:28;21.70;92.70
70267;DHT22;57676;43.856;1.926;2022-08-25T04:41:54;21.80;93.20
70267;DHT22;57676;43.856;1.926;2022-08-25T04:44:19;21.70;93.90
70267;DHT22;57676;43.856;1.926;2022-08-25T04:46:46;21.70;94.70
70267;DHT22;57676;43.856;1.926;2022-08-25T04:49:11;21.70;95.40
70267;DHT22;57676;43.856;1.926;2022-08-25T04:51:40;21.70;96.60
70267;DHT22;57676;43.856;1.926;2022-08-25T04:54:09;21.60;97.70
70267;DHT22;57676;43.856;1.926;2022-08-25T04:56:39;21.60;98.70
70267;DHT22;57676;43.856;1.926;2022-08-25T04:59:08;21.60;99.20
70267;DHT22;57676;43.856;1.926;2022-08-25T05:01:34;21.70;99.60
70267;DHT22;57676;43.856;1.926;2022-08-25T05:04:03;21.60;99.90
70267;DHT22;57676;43.856;1.926;2022-08-25T05:06:30;21.70;99.90
70267;DHT22;57676;43.856;1.926;2022-08-25T05:08:57;21.70;99.90
70267;DHT22;57676;43.856;1.926;2022-08-25T05:11:24;21.70;99.90
70267;DHT22;57676;43.856;1.926;2022-08-25T05:13:52;21.70;99.90
70267;DHT22;57676;43.856;1.926;2022-08-25T05:16:20;21.70;99.90
70267;DHT22;57676;43.856;1.926;2022-08-25T05:18:46;21.70;99.90
70267;DHT22;57676;43.856;1.926;2022-08-25T05:21:15;21.80;99.90
70267;DHT22;57676;43.856;1.926;2022-08-25T05:23:42;21.80;99.90
70267;DHT22;57676;43.856;1.926;2022-08-25T05:26:11;21.90;99.90
70267;DHT22;57676;43.856;1.926;2022-08-25T05:28:39;22.00;99.90
70267;DHT22;57676;43.856;1.926;2022-08-25T05:31:07;22.00;99.90
70267;DHT22;57676;43.856;1.926;2022-08-25T05:33:35;22.10;99.90
70267;DHT22;57676;43.856;1.926;2022-08-25T05:36:02;22.20;99.90
70267;DHT22;57676;43.856;1.926;2022-08-25T05:38:28;22.20;99.90
70267;DHT22;57676;43.856;1.926;2022-08-25T05:40:57;22.20;99.90
70267;DHT22;57676;43.856;1.926;2022-08-25T05:43:23;22.20;99.90
70267;DHT22;57676;43.856;1.926;2022-08-25T05:45:49;22.30;99.90
70267;DHT22;57676;43.856;1.926;2022-08-25T05:48:17;22.40;99.90
70267;DHT22;57676;43.856;1.926;2022-08-25T05:50:51;22.40;99.90
70267;DHT22;57676;43.856;1.926;2022-08-25T05:53:17;22.50;99.90
70267;DHT22;57676;43.856;1.926;2022-08-25T05:55:44;22.50;99.90
70267;DHT22;57676;43.856;1.926;2022-08-25T05:58:10;22.60;99.90
70267;DHT22;57676;43.856;1.926;2022-08-25T06:00:37;22.60;99.90
70267;DHT22;57676;43.856;1.926;2022-08-25T06:03:03;22.70;99.90
70267;DHT22;57676;43.856;1.926;2022-08-25T06:05:28;22.80;99.90
70267;DHT22;57676;43.856;1.926;2022-08-25T06:07:55;22.80;99.90
70267;DHT22;57676;43.856;1.926;2022-08-25T06:10:21;22.90;99.90
70267;DHT22;57676;43.856;1.926;2022-08-25T06:12:47;23.00;99.90
70267;DHT22;57676;43.856;1.926;2022-08-25T06:15:19;23.10;99.90
70267;DHT22;57676;43.856;1.926;2022-08-25T06:17:47;23.10;99.90
70267;DHT22;57676;43.856;1.926;2022-08-25T06:20:18;23.20;99.90
70267;DHT22;57676;43.856;1.926;2022-08-25T06:22:44;23.20;99.90
70267;DHT22;57676;43.856;1.926;2022-08-25T06:25:11;23.30;99.90
70267;DHT22;57676;43.856;1.926;2022-08-25T06:27:38;23.40;99.90
70267;DHT22;57676;43.856;1.926;2022-08-25T06:30:05;23.40;99.90
70267;DHT22;57676;43.856;1.926;2022-08-25T06:32:33;23.50;99.90
70267;DHT22;57676;43.856;1.926;2022-08-25T06:35:02;23.60;99.90
70267;DHT22;57676;43.856;1.926;2022-08-25T06:37:28;23.60;99.90
70267;DHT22;57676;43.856;1.926;2022-08-25T06:39:54;23.70;99.90
70267;DHT22;57676;43.856;1.926;2022-08-25T06:42:21;23.80;99.90
70267;DHT22;57676;43.856;1.926;2022-08-25T06:44:48;23.80;99.90
70267;DHT22;57676;43.856;1.926;2022-08-25T06:47:16;23.90;99.90
70267;DHT22;57676;43.856;1.926;2022-08-25T06:49:42;23.90;99.90
70267;DHT22;57676;43.856;1.926;2022-08-25T06:52:09;24.00;99.90
70267;DHT22;57676;43.856;1.926;2022-08-25T06:54:35;24.00;99.90
70267;DHT22;57676;43.856;1.926;2022-08-25T06:57:01;24.00;99.90
70267;DHT22;57676;43.856;1.926;2022-08-25T06:59:27;24.10;99.90
70267;DHT22;57676;43.856;1.926;2022-08-25T07:01:53;24.30;99.90
70267;DHT22;57676;43.856;1.926;2022-08-25T07:04:19;24.40;99.90
70267;DHT22;57676;43.856;1.926;2022-08-25T07:06:46;24.50;99.90
70267;DHT22;57676;43.856;1.926;2022-08-25T07:09:13;24.60;99.90
70267;DHT22;57676;43.856;1.926;2022-08-25T07:11:40;24.60;99.90
70267;DHT22;57676;43.856;1.926;2022-08-25T07:14:08;24.80;99.90
70267;DHT22;57676;43.856;1.926;2022-08-25T07:16:35;25.00;99.90
70267;DHT22;57676;43.856;1.926;2022-08-25T07:19:01;25.20;99.90
70267;DHT22;57676;43.856;1.926;2022-08-25T07:21:30;25.40;99.90
70267;DHT22;57676;43.856;1.926;2022-08-25T07:23:56;25.40;99.90
70267;DHT22;57676;43.856;1.926;2022-08-25T07:26:28;25.50;99.90
70267;DHT22;57676;43.856;1.926;2022-08-25T07:28:55;25.80;99.30
70267;DHT22;57676;43.856;1.926;2022-08-25T07:43:56;30.40;82.90
70267;DHT22;57676;43.856;1.926;2022-08-25T07:46:22;30.00;83.30
70267;DHT22;57676;43.856;1.926;2022-08-25T07:48:48;28.80;86.40
70267;DHT22;57676;43.856;1.926;2022-08-25T07:51:14;28.50;88.20
70267;DHT22;57676;43.856;1.926;2022-08-25T07:53:40;29.60;86.70
70267;DHT22;57676;43.856;1.926;2022-08-25T07:56:11;30.60;81.70
70267;DHT22;57676;43.856;1.926;2022-08-25T07:58:39;31.80;79.70
70267;DHT22;57676;43.856;1.926;2022-08-25T08:01:05;32.70;74.40
70267;DHT22;57676;43.856;1.926;2022-08-25T08:03:31;31.30;76.40
70267;DHT22;57676;43.856;1.926;2022-08-25T08:06:00;30.50;78.30
70267;DHT22;57676;43.856;1.926;2022-08-25T08:08:27;29.60;80.40
70267;DHT22;57676;43.856;1.926;2022-08-25T08:10:53;28.70;82.90
70267;DHT22;57676;43.856;1.926;2022-08-25T08:13:19;28.20;84.70
70267;DHT22;57676;43.856;1.926;2022-08-25T08:15:45;28.00;86.30
70267;DHT22;57676;43.856;1.926;2022-08-25T08:18:12;27.90;86.40
70267;DHT22;57676;43.856;1.926;2022-08-25T08:20:37;27.80;86.70
70267;DHT22;57676;43.856;1.926;2022-08-25T08:23:03;27.60;87.80
70267;DHT22;57676;43.856;1.926;2022-08-25T08:25:31;27.50;88.70
70267;DHT22;57676;43.856;1.926;2022-08-25T08:27:57;27.40;89.30
70267;DHT22;57676;43.856;1.926;2022-08-25T08:30:23;27.40;89.70
70267;DHT22;57676;43.856;1.926;2022-08-25T08:32:49;27.60;89.70
70267;DHT22;57676;43.856;1.926;2022-08-25T08:35:16;27.50;90.10
70267;DHT22;57676;43.856;1.926;2022-08-25T08:37:44;27.50;90.00
70267;DHT22;57676;43.856;1.926;2022-08-25T08:40:14;27.50;90.00
70267;DHT22;57676;43.856;1.926;2022-08-25T08:42:59;27.40;90.30
70267;DHT22;57676;43.856;1.926;2022-08-25T08:45:35;27.50;90.10
70267;DHT22;57676;43.856;1.926;2022-08-25T08:51:20;27.40;90.30
70267;DHT22;57676;43.856;1.926;2022-08-25T08:53:55;27.30;90.40
70267;DHT22;57676;43.856;1.926;2022-08-25T08:59:16;27.20;90.30
70267;DHT22;57676;43.856;1.926;2022-08-25T09:02:03;27.20;90.50
70267;DHT22;57676;43.856;1.926;2022-08-25T09:04:42;27.30;90.60
70267;DHT22;57676;43.856;1.926;2022-08-25T09:07:15;27.40;90.00
70267;DHT22;57676;43.856;1.926;2022-08-25T09:09:42;27.40;90.00
70267;DHT22;57676;43.856;1.926;2022-08-25T09:12:25;27.50;89.90
70267;DHT22;57676;43.856;1.926;2022-08-25T09:15:18;27.60;89.20
70267;DHT22;57676;43.856;1.926;2022-08-25T09:18:08;27.70;89.30
70267;DHT22;57676;43.856;1.926;2022-08-25T09:29:58;28.00;88.30
70267;DHT22;57676;43.856;1.926;2022-08-25T09:32:28;28.10;87.90
70267;DHT22;57676;43.856;1.926;2022-08-25T09:34:55;28.20;86.90
70267;DHT22;57676;43.856;1.926;2022-08-25T09:37:22;28.30;86.40
70267;DHT22;57676;43.856;1.926;2022-08-25T09:39:49;28.40;85.90
70267;DHT22;57676;43.856;1.926;2022-08-25T09:42:18;28.40;84.80
70267;DHT22;57676;43.856;1.926;2022-08-25T09:44:46;28.40;84.60
70267;DHT22;57676;43.856;1.926;2022-08-25T09:47:21;28.40;84.20
70267;DHT22;57676;43.856;1.926;2022-08-25T09:49:55;28.30;84.60
70267;DHT22;57676;43.856;1.926;2022-08-25T09:52:37;28.30;85.20
70267;DHT22;57676;43.856;1.926;2022-08-25T09:55:25;28.20;84.80
70267;DHT22;57676;43.856;1.926;2022-08-25T09:57:53;28.20;85.10
70267;DHT22;57676;43.856;1.926;2022-08-25T10:00:28;28.30;84.10
70267;DHT22;57676;43.856;1.926;2022-08-25T10:03:19;28.10;83.60
70267;DHT22;57676;43.856;1.926;2022-08-25T10:08:35;28.40;84.00
70267;DHT22;57676;43.856;1.926;2022-08-25T10:11:07;28.50;83.80
70267;DHT22;57676;43.856;1.926;2022-08-25T10:14:00;28.40;83.30
70267;DHT22;57676;43.856;1.926;2022-08-25T10:16:28;28.20;83.60
70267;DHT22;57676;43.856;1.926;2022-08-25T10:19:07;28.50;82.50
70267;DHT22;57676;43.856;1.926;2022-08-25T10:21:36;28.60;81.90
70267;DHT22;57676;43.856;1.926;2022-08-25T10:24:04;27.90;82.40
70267;DHT22;57676;43.856;1.926;2022-08-25T10:26:54;28.50;81.00
70267;DHT22;57676;43.856;1.926;2022-08-25T10:29:48;28.80;78.10
70267;DHT22;57676;43.856;1.926;2022-08-25T10:32:31;28.60;76.60
70267;DHT22;57676;43.856;1.926;2022-08-25T10:35:04;28.60;77.20
70267;DHT22;57676;43.856;1.926;2022-08-25T10:38:10;28.80;76.20
70267;DHT22;57676;43.856;1.926;2022-08-25T10:40:47;28.80;75.70
70267;DHT22;57676;43.856;1.926;2022-08-25T10:43:38;28.90;74.20
70267;DHT22;57676;43.856;1.926;2022-08-25T10:46:22;29.10;74.80
70267;DHT22;57676;43.856;1.926;2022-08-25T10:49:00;29.30;74.60
70267;DHT22;57676;43.856;1.926;2022-08-25T10:51:53;29.10;75.00
70267;DHT22;57676;43.856;1.926;2022-08-25T10:54:35;29.30;74.70
70267;DHT22;57676;43.856;1.926;2022-08-25T11:00:07;29.50;74.60
70267;DHT22;57676;43.856;1.926;2022-08-25T11:02:59;29.80;74.70
70267;DHT22;57676;43.856;1.926;2022-08-25T11:05:51;29.90;73.40
70267;DHT22;57676;43.856;1.926;2022-08-25T11:08:39;30.00;73.90
70267;DHT22;57676;43.856;1.926;2022-08-25T11:11:19;30.30;73.80
70267;DHT22;57676;43.856;1.926;2022-08-25T11:13:54;30.50;73.20
70267;DHT22;57676;43.856;1.926;2022-08-25T11:19:21;30.30;73.80
70267;DHT22;57676;43.856;1.926;2022-08-25T11:25:06;30.00;74.70
70267;DHT22;57676;43.856;1.926;2022-08-25T11:30:23;30.20;74.30
70267;DHT22;57676;43.856;1.926;2022-08-25T11:32:52;30.20;74.20
70267;DHT22;57676;43.856;1.926;2022-08-25T11:35:40;30.40;74.00
70267;DHT22;57676;43.856;1.926;2022-08-25T11:41:23;30.70;73.70
70267;DHT22;57676;43.856;1.926;2022-08-25T11:44:02;31.10;74.30
70267;DHT22;57676;43.856;1.926;2022-08-25T11:49:59;31.30;72.80
70267;DHT22;57676;43.856;1.926;2022-08-25T11:52:47;31.60;72.40
70267;DHT22;57676;43.856;1.926;2022-08-25T11:58:47;31.20;72.80
70267;DHT22;57676;43.856;1.926;2022-08-25T12:04:38;31.70;71.30
70267;DHT22;57676;43.856;1.926;2022-08-25T12:07:19;31.60;71.00
70267;DHT22;57676;43.856;1.926;2022-08-25T12:10:07;31.60;71.40
70267;DHT22;57676;43.856;1.926;2022-08-25T12:15:28;30.60;72.40
70267;DHT22;57676;43.856;1.926;2022-08-25T12:21:09;30.70;73.30
70267;DHT22;57676;43.856;1.926;2022-08-25T12:23:45;30.90;72.50
70267;DHT22;57676;43.856;1.926;2022-08-25T12:26:50;30.40;73.00
70267;DHT22;57676;43.856;1.926;2022-08-25T12:29:25;30.50;73.40
70267;DHT22;57676;43.856;1.926;2022-08-25T12:32:16;30.80;72.80
70267;DHT22;57676;43.856;1.926;2022-08-25T12:38:10;30.60;73.40
70267;DHT22;57676;43.856;1.926;2022-08-25T12:41:02;30.90;72.50
70267;DHT22;57676;43.856;1.926;2022-08-25T12:43:32;31.20;71.80
70267;DHT22;57676;43.856;1.926;2022-08-25T12:46:33;31.10;71.30
70267;DHT22;57676;43.856;1.926;2022-08-25T12:52:11;31.10;70.60
70267;DHT22;57676;43.856;1.926;2022-08-25T12:54:46;31.10;69.50
70267;DHT22;57676;43.856;1.926;2022-08-25T13:00:28;31.50;69.80
70267;DHT22;57676;43.856;1.926;2022-08-25T13:09:20;32.30;68.20
70267;DHT22;57676;43.856;1.926;2022-08-25T13:11:57;32.40;67.90
70267;DHT22;57676;43.856;1.926;2022-08-25T13:14:36;32.10;67.50
70267;DHT22;57676;43.856;1.926;2022-08-25T13:17:03;32.00;67.50
70267;DHT22;57676;43.856;1.926;2022-08-25T13:19:30;31.90;67.90
70267;DHT22;57676;43.856;1.926;2022-08-25T13:21:57;31.90;68.10
70267;DHT22;57676;43.856;1.926;2022-08-25T13:24:27;31.60;68.70
70267;DHT22;57676;43.856;1.926;2022-08-25T13:26:59;31.30;68.70
70267;DHT22;57676;43.856;1.926;2022-08-25T13:29:29;31.20;69.20
70267;DHT22;57676;43.856;1.926;2022-08-25T13:31:58;31.30;69.30
70267;DHT22;57676;43.856;1.926;2022-08-25T13:34:29;31.50;69.30
70267;DHT22;57676;43.856;1.926;2022-08-25T13:37:03;31.70;68.40
70267;DHT22;57676;43.856;1.926;2022-08-25T13:39:49;32.10;68.50
70267;DHT22;57676;43.856;1.926;2022-08-25T13:42:16;32.30;67.50
70267;DHT22;57676;43.856;1.926;2022-08-25T13:44:42;32.50;67.00
70267;DHT22;57676;43.856;1.926;2022-08-25T13:47:11;32.50;66.80
70267;DHT22;57676;43.856;1.926;2022-08-25T13:49:40;32.70;66.30
70267;DHT22;57676;43.856;1.926;2022-08-25T13:54:59;32.30;66.30
70267;DHT22;57676;43.856;1.926;2022-08-25T13:57:28;32.10;66.50
70267;DHT22;57676;43.856;1.926;2022-08-25T13:59:59;32.30;67.30
70267;DHT22;57676;43.856;1.926;2022-08-25T14:02:48;32.40;67.10
70267;DHT22;57676;43.856;1.926;2022-08-25T14:05:16;32.20;67.30
70267;DHT22;57676;43.856;1.926;2022-08-25T14:07:55;32.20;67.30
70267;DHT22;57676;43.856;1.926;2022-08-25T14:10:42;32.20;67.40
70267;DHT22;57676;43.856;1.926;2022-08-25T14:13:14;32.10;67.10
70267;DHT22;57676;43.856;1.926;2022-08-25T14:15:42;32.30;67.30
70267;DHT22;57676;43.856;1.926;2022-08-25T14:18:16;32.60;66.70
70267;DHT22;57676;43.856;1.926;2022-08-25T14:20:50;32.90;66.50
70267;DHT22;57676;43.856;1.926;2022-08-25T14:23:23;32.90;66.30
70267;DHT22;57676;43.856;1.926;2022-08-25T14:25:53;33.00;66.20
70267;DHT22;57676;43.856;1.926;2022-08-25T14:28:23;32.90;66.30
70267;DHT22;57676;43.856;1.926;2022-08-25T14:30:52;32.80;66.60
70267;DHT22;57676;43.856;1.926;2022-08-25T14:33:22;32.80;66.80
70267;DHT22;57676;43.856;1.926;2022-08-25T14:35:51;32.90;67.20
70267;DHT22;57676;43.856;1.926;2022-08-25T14:38:18;32.80;66.70
70267;DHT22;57676;43.856;1.926;2022-08-25T14:40:45;32.90;66.70
70267;DHT22;57676;43.856;1.926;2022-08-25T14:43:11;32.80;67.00
70267;DHT22;57676;43.856;1.926;2022-08-25T14:45:40;32.70;66.80
70267;DHT22;57676;43.856;1.926;2022-08-25T14:48:08;32.30;67.20
70267;DHT22;57676;43.856;1.926;2022-08-25T14:50:35;31.90;67.80
70267;DHT22;57676;43.856;1.926;2022-08-25T14:53:01;32.00;67.90
70267;DHT22;57676;43.856;1.926;2022-08-25T14:55:28;32.30;68.00
70267;DHT22;57676;43.856;1.926;2022-08-25T14:57:54;32.60;67.60
70267;DHT22;57676;43.856;1.926;2022-08-25T15:00:19;32.50;67.20
70267;DHT22;57676;43.856;1.926;2022-08-25T15:02:47;32.50;67.30
70267;DHT22;57676;43.856;1.926;2022-08-25T15:05:16;32.60;67.20
70267;DHT22;57676;43.856;1.926;2022-08-25T15:07:45;32.70;66.90
70267;DHT22;57676;43.856;1.926;2022-08-25T15:10:30;32.80;66.50
70267;DHT22;57676;43.856;1.926;2022-08-25T15:12:56;32.70;66.70
70267;DHT22;57676;43.856;1.926;2022-08-25T15:15:22;32.70;66.60
70267;DHT22;57676;43.856;1.926;2022-08-25T15:17:51;32.80;66.20
70267;DHT22;57676;43.856;1.926;2022-08-25T15:20:17;32.70;66.70
70267;DHT22;57676;43.856;1.926;2022-08-25T15:22:43;32.80;66.20
70267;DHT22;57676;43.856;1.926;2022-08-25T15:25:10;32.80;66.10
70267;DHT22;57676;43.856;1.926;2022-08-25T15:27:36;32.90;66.30
70267;DHT22;57676;43.856;1.926;2022-08-25T15:30:03;32.80;65.40
70267;DHT22;57676;43.856;1.926;2022-08-25T15:32:29;32.70;65.20
70267;DHT22;57676;43.856;1.926;2022-08-25T15:34:55;32.60;65.60
70267;DHT22;57676;43.856;1.926;2022-08-25T15:37:21;32.70;65.30
70267;DHT22;57676;43.856;1.926;2022-08-25T15:39:46;32.90;65.30
70267;DHT22;57676;43.856;1.926;2022-08-25T15:42:14;32.90;64.60
70267;DHT22;57676;43.856;1.926;2022-08-25T15:44:41;33.00;64.90
70267;DHT22;57676;43.856;1.926;2022-08-25T15:47:08;32.90;64.80
70267;DHT22;57676;43.856;1.926;2022-08-25T15:49:34;33.00;64.80
70267;DHT22;57676;43.856;1.926;2022-08-25T15:52:00;32.80;65.00
70267;DHT22;57676;43.856;1.926;2022-08-25T15:54:27;32.80;64.90
70267;DHT22;57676;43.856;1.926;2022-08-25T15:56:57;32.80;64.90
70267;DHT22;57676;43.856;1.926;2022-08-25T15:59:23;32.60;66.00
70267;DHT22;57676;43.856;1.926;2022-08-25T16:01:49;32.50;65.50
70267;DHT22;57676;43.856;1.926;2022-08-25T16:04:19;32.40;65.70
70267;DHT22;57676;43.856;1.926;2022-08-25T16:06:45;32.00;66.00
70267;DHT22;57676;43.856;1.926;2022-08-25T16:09:11;31.70;66.30
70267;DHT22;57676;43.856;1.926;2022-08-25T16:11:37;31.40;65.80
70267;DHT22;57676;43.856;1.926;2022-08-25T16:14:03;31.10;66.60
70267;DHT22;57676;43.856;1.926;2022-08-25T16:16:30;31.00;66.90
70267;DHT22;57676;43.856;1.926;2022-08-25T16:18:56;30.80;67.10
70267;DHT22;57676;43.856;1.926;2022-08-25T16:21:26;30.80;67.50
70267;DHT22;57676;43.856;1.926;2022-08-25T16:23:54;30.70;67.80
70267;DHT22;57676;43.856;1.926;2022-08-25T16:26:21;30.70;68.20
70267;DHT22;57676;43.856;1.926;2022-08-25T16:28:46;30.80;68.40
70267;DHT22;57676;43.856;1.926;2022-08-25T16:31:14;30.80;68.30
70267;DHT22;57676;43.856;1.926;2022-08-25T16:33:41;30.70;68.20
70267;DHT22;57676;43.856;1.926;2022-08-25T16:36:14;30.60;68.00
70267;DHT22;57676;43.856;1.926;2022-08-25T16:38:41;30.60;68.70
70267;DHT22;57676;43.856;1.926;2022-08-25T16:41:09;30.70;69.00
70267;DHT22;57676;43.856;1.926;2022-08-25T16:43:35;30.60;68.90
70267;DHT22;57676;43.856;1.926;2022-08-25T16:46:04;30.50;69.20
70267;DHT22;57676;43.856;1.926;2022-08-25T16:48:31;30.50;68.40
70267;DHT22;57676;43.856;1.926;2022-08-25T16:50:57;30.50;68.40
70267;DHT22;57676;43.856;1.926;2022-08-25T16:53:23;30.60;68.50
70267;DHT22;57676;43.856;1.926;2022-08-25T16:56:09;30.80;68.50
70267;DHT22;57676;43.856;1.926;2022-08-25T16:58:36;30.80;68.00
70267;DHT22;57676;43.856;1.926;2022-08-25T17:01:08;30.90;68.00
70267;DHT22;57676;43.856;1.926;2022-08-25T17:03:36;30.90;67.90
70267;DHT22;57676;43.856;1.926;2022-08-25T17:06:02;30.90;67.60
70267;DHT22;57676;43.856;1.926;2022-08-25T17:08:28;30.80;67.20